Katoomba, Australia
Current Conditions -  °F | °C
As of 12:30 AM on Thursday 27 Nov 2014 (Local Time) from YSRI Reporting Station
Broken Clouds Broken Clouds  
Wind Chill: 66°   Ceiling: 4800
Heat Index: 66°   Visibility: 6mi
Dew Point: 63°   Wind: 6mph
Humidity: 88%   Direction: 190°S
Pressure: 30.06"   Gusts: NA
Location:  33.71°S, 150.31°E
Report Text: YSRI 261330Z AUTO 19005KT 9999 // SCT021 BKN048 19/17 Q1018
Loading
Personal Weather Stations






























Interactive Weather Map New forecast layout! Learn more

10-Day Weather Forecast

Advertisements
Track Severe Weather on mobile